Time;durP1;ratioP1;P1;durP2;ratioP2;P2;SDS_P1;SDS_P2;PMS_P1;PMS_P2;Temp;Humidity;BMP_temperature;BMP_pressure;BME280_temperature;BME280_humidity;BME280_pressure;Samples;Min_cycle;Max_cycle;Signal;HPM_P1;HPM_P2
2024/02/10 08:22:53;;;;;;;36.22;24.60;;;9.10;99.90;;;;;;7349786;19;20034;-63
2024/02/10 08:40:45;;;;;;;29.63;21.13;;;9.30;99.90;;;;;;7368110;19;20517;-64
2024/02/10 08:43:14;;;;;;;32.38;22.40;;;9.30;99.90;;;;;;7391461;19;20021;-65
2024/02/10 08:45:44;;;;;;;31.45;20.60;;;9.30;99.90;;;;;;7393637;19;20478;-66
2024/02/10 08:48:11;;;;;;;25.45;20.58;;;9.30;99.90;;;;;;7386237;19;20051;-65
2024/02/10 08:50:41;;;;;;;28.83;20.85;;;9.40;99.90;;;;;;7374172;19;20031;-65
2024/02/10 08:53:08;;;;;;;27.58;20.10;;;9.40;99.90;;;;;;7376381;19;20022;-65
2024/02/10 08:55:34;;;;;;;27.60;20.05;;;9.40;99.90;;;;;;7385528;19;20021;-66
2024/02/10 08:58:04;;;;;;;28.25;21.10;;;9.50;99.90;;;;;;7390559;19;20011;-66
2024/02/10 09:00:30;;;;;;;26.40;19.58;;;9.50;99.90;;;;;;7394712;19;20026;-66
2024/02/10 09:02:56;;;;;;;26.88;19.33;;;9.50;99.90;;;;;;7394799;19;20021;-64
2024/02/10 09:05:26;;;;;;;23.85;17.95;;;9.50;99.90;;;;;;7389051;19;20026;-64
2024/02/10 09:07:53;;;;;;;26.60;18.73;;;9.50;99.90;;;;;;7389280;19;20011;-64
2024/02/10 09:10:27;;;;;;;23.58;17.40;;;9.60;99.90;;;;;;7390389;19;20010;-65
2024/02/10 09:12:55;;;;;;;25.70;19.00;;;9.60;99.90;;;;;;7389838;19;20014;-65
2024/02/10 09:15:22;;;;;;;21.63;17.50;;;9.60;99.90;;;;;;7389503;19;20022;-66
2024/02/10 09:17:50;;;;;;;24.20;17.50;;;9.70;99.90;;;;;;7387655;19;20024;-64
2024/02/10 09:20:17;;;;;;;25.67;18.58;;;9.70;99.90;;;;;;7390061;19;20493;-65
2024/02/10 09:22:44;;;;;;;21.27;17.27;;;9.80;99.90;;;;;;7387630;19;20011;-65
2024/02/10 09:25:10;;;;;;;24.70;18.33;;;9.80;99.90;;;;;;7390668;19;20395;-65
2024/02/10 09:27:39;;;;;;;26.70;18.13;;;9.90;99.90;;;;;;7390884;19;20014;-66
2024/02/10 09:30:11;;;;;;;23.27;18.23;;;9.90;99.90;;;;;;7396031;19;20015;-66
2024/02/10 09:32:37;;;;;;;25.25;16.85;;;10.00;99.90;;;;;;7394459;19;20530;-66
2024/02/10 09:35:08;;;;;;;22.73;17.45;;;10.10;99.90;;;;;;7394501;19;20014;-66
2024/02/10 09:37:35;;;;;;;22.17;17.70;;;10.20;99.90;;;;;;7393938;19;20486;-68
2024/02/10 09:40:02;;;;;;;21.50;15.23;;;10.30;99.90;;;;;;7390321;19;20342;-67
2024/02/10 09:42:36;;;;;;;17.55;15.40;;;10.30;99.90;;;;;;7396726;19;20018;-66
2024/02/10 09:45:08;;;;;;;17.13;14.63;;;10.30;99.90;;;;;;7397489;19;20362;-65
2024/02/10 09:47:39;;;;;;;15.90;13.77;;;10.30;99.90;;;;;;7397393;19;20018;-66
2024/02/10 09:50:13;;;;;;;17.48;13.82;;;10.40;99.90;;;;;;7393469;19;20346;-66
2024/02/10 09:52:46;;;;;;;16.65;14.32;;;10.30;99.90;;;;;;7396381;19;20467;-66
2024/02/10 09:55:16;;;;;;;17.75;14.40;;;10.40;99.90;;;;;;7396381;19;20010;-66
2024/02/10 09:57:47;;;;;;;15.73;13.48;;;10.40;99.90;;;;;;7398062;19;20007;-66
2024/02/10 10:00:17;;;;;;;16.38;13.65;;;10.40;99.90;;;;;;7390399;19;20321;-64
2024/02/10 10:02:50;;;;;;;17.80;14.02;;;10.40;99.90;;;;;;7391112;19;20566;-65
2024/02/10 10:05:22;;;;;;;14.88;12.05;;;10.40;99.90;;;;;;7391109;19;20493;-65
2024/02/10 10:07:52;;;;;;;16.77;12.60;;;10.50;99.90;;;;;;7392966;19;20006;-66
2024/02/10 10:10:20;;;;;;;14.20;12.00;;;10.50;99.90;;;;;;7391504;19;20037;-65
2024/02/10 10:12:49;;;;;;;17.02;12.98;;;10.50;99.90;;;;;;7391313;19;20018;-64
2024/02/10 10:15:16;;;;;;;16.58;13.13;;;10.50;99.90;;;;;;7386886;19;20050;-63
2024/02/10 10:17:43;;;;;;;16.02;12.50;;;10.60;99.90;;;;;;7388537;19;20011;-63
2024/02/10 10:20:12;;;;;;;14.25;12.40;;;10.70;99.90;;;;;;7386628;19;20022;-64
2024/02/10 10:22:40;;;;;;;15.52;12.65;;;10.70;99.90;;;;;;7389548;19;20042;-63
2024/02/10 10:25:07;;;;;;;16.10;12.07;;;10.80;99.90;;;;;;7389660;19;20366;-64
2024/02/10 10:27:38;;;;;;;13.38;11.98;;;10.90;99.90;;;;;;7384686;19;20025;-65
2024/02/10 10:30:11;;;;;;;14.25;12.05;;;11.00;99.90;;;;;;7385818;19;20026;-64
2024/02/10 10:32:42;;;;;;;13.73;11.35;;;11.10;99.90;;;;;;7387556;19;20046;-65
2024/02/10 10:35:11;;;;;;;13.13;10.70;;;11.30;99.90;;;;;;7384340;19;20011;-65
2024/02/10 10:37:38;;;;;;;13.77;11.00;;;11.30;99.90;;;;;;7383724;19;20018;-65
2024/02/10 10:40:08;;;;;;;13.23;10.82;;;11.40;99.90;;;;;;7385442;19;20015;-64
2024/02/10 10:42:39;;;;;;;11.63;10.07;;;11.50;99.90;;;;;;7388995;19;20014;-66
2024/02/10 10:45:12;;;;;;;12.32;9.88;;;11.60;99.90;;;;;;7392225;19;20673;-67
2024/02/10 10:47:45;;;;;;;12.20;10.23;;;11.80;99.90;;;;;;7369727;19;20050;-70
2024/02/10 10:50:12;;;;;;;12.02;9.82;;;12.10;99.90;;;;;;7382448;19;20010;-65
2024/02/10 10:52:41;;;;;;;10.35;9.35;;;12.60;99.90;;;;;;7385415;19;20057;-65
2024/02/10 10:55:15;;;;;;;10.82;9.63;;;12.90;99.90;;;;;;7381296;19;20018;-66
2024/02/10 10:57:44;;;;;;;9.13;8.18;;;13.00;99.90;;;;;;7379194;19;20329;-65
2024/02/10 11:00:15;;;;;;;12.52;8.52;;;12.90;99.90;;;;;;7377598;19;20482;-65
2024/02/10 11:02:52;;;;;;;9.60;8.25;;;12.70;99.90;;;;;;7385054;19;20015;-63
2024/02/10 11:05:23;;;;;;;8.40;7.20;;;12.50;99.90;;;;;;7382369;19;20027;-64
2024/02/10 11:08:00;;;;;;;8.40;7.47;;;12.40;99.90;;;;;;7383941;19;20025;-63
2024/02/10 11:10:39;;;;;;;9.48;8.40;;;12.40;99.90;;;;;;7381133;19;20391;-63
2024/02/10 11:13:08;;;;;;;9.32;7.93;;;12.30;99.90;;;;;;7386059;19;20011;-64
2024/02/10 11:15:40;;;;;;;10.02;7.43;;;12.30;99.90;;;;;;7382705;19;20057;-64
2024/02/10 11:18:20;;;;;;;;;;;12.30;99.90;;;;;;7388160;19;20015;-65
2024/02/10 11:20:47;;;;;;;8.85;7.43;;;12.30;99.90;;;;;;7386089;19;20247;-65
2024/02/10 11:23:21;;;;;;;11.82;8.55;;;12.30;99.90;;;;;;7385393;19;20046;-64
2024/02/10 11:25:52;;;;;;;9.20;8.20;;;12.30;99.90;;;;;;7383350;19;20482;-65
2024/02/10 11:28:21;;;;;;;11.18;7.93;;;12.30;99.90;;;;;;7383871;19;20018;-65
2024/02/10 11:30:51;;;;;;;10.25;7.47;;;12.30;99.90;;;;;;7383246;19;20013;-65
2024/02/10 11:33:25;;;;;;;8.02;7.22;;;12.30;99.90;;;;;;7385762;19;20025;-64
2024/02/10 11:35:53;;;;;;;9.27;8.27;;;12.30;99.90;;;;;;7382642;19;20038;-63
2024/02/10 11:38:21;;;;;;;10.70;8.20;;;12.30;99.90;;;;;;7385297;19;20517;-65
2024/02/10 11:40:57;;;;;;;8.15;7.22;;;12.40;99.90;;;;;;7381150;19;20015;-65
2024/02/10 11:43:26;;;;;;;9.57;7.60;;;12.40;99.90;;;;;;7381660;19;20038;-65
2024/02/10 11:45:53;;;;;;;7.88;6.72;;;12.50;99.90;;;;;;7382175;19;20762;-64
2024/02/10 11:48:20;;;;;;;9.05;6.90;;;12.50;99.90;;;;;;7383154;19;20050;-63
2024/02/10 11:50:48;;;;;;;8.52;7.63;;;12.50;99.90;;;;;;7382059;19;20015;-63
2024/02/10 11:53:16;;;;;;;8.15;7.15;;;12.50;99.90;;;;;;7376830;19;20482;-63
2024/02/10 11:55:47;;;;;;;11.95;7.18;;;12.60;99.90;;;;;;7380593;19;20025;-63
2024/02/10 11:58:18;;;;;;;7.18;6.45;;;12.60;99.90;;;;;;7380648;19;20474;-63
2024/02/10 12:00:46;;;;;;;8.70;6.22;;;12.60;99.90;;;;;;7379211;19;20030;-63
2024/02/10 12:03:15;;;;;;;7.35;6.13;;;12.60;99.90;;;;;;7378579;19;20827;-64
2024/02/10 12:05:42;;;;;;;9.45;5.78;;;12.60;99.90;;;;;;7381304;19;20019;-65
2024/02/10 12:08:09;;;;;;;8.52;6.95;;;12.60;99.90;;;;;;7379780;19;20509;-64
2024/02/10 12:10:38;;;;;;;8.50;6.50;;;12.60;99.90;;;;;;7377430;19;20029;-65
2024/02/10 12:13:07;;;;;;;7.78;6.40;;;12.60;99.90;;;;;;7380450;19;20015;-64
2024/02/10 12:15:33;;;;;;;8.82;6.65;;;12.60;99.90;;;;;;7376876;19;20826;-64
2024/02/10 12:18:02;;;;;;;7.75;6.15;;;12.60;99.90;;;;;;7384003;19;20018;-64
2024/02/10 12:20:29;;;;;;;9.15;6.07;;;12.60;99.90;;;;;;7378646;19;20492;-64
2024/02/10 12:22:56;;;;;;;8.80;6.50;;;12.60;99.90;;;;;;7382119;19;20021;-64
2024/02/10 12:25:23;;;;;;;8.85;6.10;;;12.60;99.90;;;;;;7380058;19;20078;-63
2024/02/10 12:27:49;;;;;;;7.85;6.35;;;12.60;99.90;;;;;;7374851;19;20038;-64
2024/02/10 12:30:16;;;;;;;7.45;5.85;;;12.60;99.90;;;;;;7377923;19;20025;-64
2024/02/10 12:32:44;;;;;;;8.93;6.30;;;12.60;99.90;;;;;;7377554;19;20019;-64
2024/02/10 12:35:16;;;;;;;7.70;5.85;;;12.60;99.90;;;;;;7382293;19;20413;-65
2024/02/10 12:37:47;;;;;;;8.45;6.55;;;12.60;99.90;;;;;;7380657;19;20472;-66
2024/02/10 12:40:15;;;;;;;7.45;6.60;;;12.60;99.90;;;;;;7379680;19;20023;-65
2024/02/10 12:42:42;;;;;;;6.97;5.97;;;12.60;99.90;;;;;;7382732;19;20014;-64
2024/02/10 12:45:12;;;;;;;7.15;5.78;;;12.60;99.90;;;;;;7380899;19;20030;-63
2024/02/10 12:47:43;;;;;;;7.47;6.00;;;12.60;99.90;;;;;;7369145;19;20025;-65
2024/02/10 12:50:10;;;;;;;7.38;6.00;;;12.60;99.90;;;;;;7384660;19;20022;-65
2024/02/10 12:52:39;;;;;;;8.50;6.63;;;12.60;99.90;;;;;;7380721;19;20021;-65
2024/02/10 12:55:14;;;;;;;9.15;6.50;;;12.70;99.90;;;;;;7379867;19;20406;-66
2024/02/10 12:57:43;;;;;;;9.15;5.68;;;12.70;99.90;;;;;;7379821;19;20027;-65
2024/02/10 13:00:21;;;;;;;7.43;5.28;;;12.70;99.90;;;;;;7378176;19;20034;-64
2024/02/10 13:02:56;;;;;;;8.27;5.93;;;12.70;99.90;;;;;;7381707;19;20010;-66
2024/02/10 13:05:25;;;;;;;7.43;5.60;;;12.70;99.90;;;;;;7381650;19;20014;-65
2024/02/10 13:07:53;;;;;;;9.35;6.28;;;12.80;99.90;;;;;;7377937;19;20014;-66
2024/02/10 13:10:21;;;;;;;7.82;5.97;;;12.80;99.90;;;;;;7381485;19;20652;-65
2024/02/10 13:12:56;;;;;;;9.15;5.53;;;12.90;99.90;;;;;;7377547;19;20026;-64
2024/02/10 13:15:23;;;;;;;9.38;6.47;;;12.90;99.90;;;;;;7388950;19;20014;-64
2024/02/10 13:17:51;;;;;;;8.35;5.80;;;13.00;99.90;;;;;;7392400;19;20026;-66
2024/02/10 13:20:26;;;;;;;8.98;5.85;;;13.10;99.90;;;;;;7389736;19;20455;-66
2024/02/10 13:22:56;;;;;;;5.88;4.82;;;13.20;99.90;;;;;;7394756;19;20015;-67
2024/02/10 13:25:22;;;;;;;8.15;4.88;;;13.30;99.90;;;;;;7395176;19;20010;-67
2024/02/10 13:27:52;;;;;;;7.38;5.50;;;13.40;99.90;;;;;;7389397;19;20037;-65
2024/02/10 13:30:22;;;;;;;6.38;5.15;;;13.50;99.90;;;;;;7396072;19;20017;-67
2024/02/10 13:32:50;;;;;;;6.68;5.00;;;13.70;99.90;;;;;;7392555;19;20481;-67
2024/02/10 13:35:18;;;;;;;5.63;4.78;;;13.90;99.90;;;;;;7393138;19;20091;-65
2024/02/10 14:00:46;;;;;;;6.15;4.05;;;14.70;99.90;;;;;;7386269;19;20608;-64
2024/02/10 14:03:00;;;;;;;7.30;4.20;;;14.70;99.90;;;;;;7380558;19;20011;-65
2024/02/10 14:09:03;;;;;;;7.32;3.58;;;14.60;99.90;;;;;;7390563;19;20022;-67
2024/02/10 14:11:19;;;;;;;6.13;3.83;;;14.40;99.90;;;;;;7380573;19;20011;-66
2024/02/10 14:13:50;;;;;;;7.85;4.07;;;14.30;99.90;;;;;;7384479;19;20026;-65
2024/02/10 14:16:25;;;;;;;9.25;4.30;;;14.20;99.90;;;;;;7387937;19;20094;-65
2024/02/10 14:18:52;;;;;;;7.60;4.65;;;14.00;99.90;;;;;;7389954;19;20029;-67
2024/02/10 14:21:28;;;;;;;6.22;4.38;;;14.00;99.90;;;;;;7386891;19;20026;-66
2024/02/10 14:24:01;;;;;;;8.93;4.60;;;13.90;99.90;;;;;;7388740;19;20018;-66
2024/02/10 14:26:36;;;;;;;7.13;4.15;;;13.80;99.90;;;;;;7383234;19;20014;-65
2024/02/10 14:29:05;;;;;;;7.28;4.43;;;13.80;99.90;;;;;;7382612;19;20078;-65
2024/02/10 14:31:44;;;;;;;7.90;4.53;;;13.70;99.90;;;;;;7387346;19;20515;-65
2024/02/10 14:34:35;;;;;;;6.32;4.15;;;13.60;99.90;;;;;;7388736;19;20041;-67
2024/02/10 14:37:26;;;;;;;6.47;3.60;;;13.60;99.90;;;;;;7388878;19;20041;-66
2024/02/10 14:39:48;;;;;;;7.82;3.72;;;13.60;99.90;;;;;;7387477;19;20018;-66
2024/02/10 14:42:16;;;;;;;6.30;4.28;;;13.50;99.90;;;;;;7384778;19;20015;-65
2024/02/10 14:44:42;;;;;;;8.32;3.80;;;13.50;99.90;;;;;;7388483;19;20019;-66
2024/02/10 14:47:09;;;;;;;7.03;4.28;;;13.50;99.90;;;;;;7385531;19;20021;-65
2024/02/10 14:49:35;;;;;;;6.72;4.20;;;13.40;99.90;;;;;;7386270;19;20074;-65
2024/02/10 14:52:01;;;;;;;6.07;3.95;;;13.40;99.90;;;;;;7379894;19;20018;-66
2024/02/10 14:54:30;;;;;;;7.00;4.50;;;13.30;99.90;;;;;;7387265;19;20068;-65
2024/02/10 14:56:59;;;;;;;6.63;4.47;;;13.30;99.90;;;;;;7386861;19;20549;-65
2024/02/10 14:59:29;;;;;;;9.88;7.38;;;13.20;99.90;;;;;;7387503;19;20042;-66
2024/02/10 15:01:56;;;;;;;6.53;4.78;;;13.20;99.90;;;;;;7387899;19;20078;-65
2024/02/10 15:04:24;;;;;;;6.45;5.40;;;13.10;99.90;;;;;;7386637;19;20026;-64
2024/02/10 15:06:50;;;;;;;7.18;5.15;;;13.10;99.90;;;;;;7382157;19;20487;-64
2024/02/10 15:09:19;;;;;;;7.03;4.90;;;12.90;99.90;;;;;;7378742;19;20110;-64
2024/02/10 15:11:46;;;;;;;7.10;5.65;;;12.90;99.90;;;;;;7383259;19;20019;-64
2024/02/10 15:14:16;;;;;;;7.82;5.65;;;12.90;99.90;;;;;;7380607;19;20014;-65
2024/02/10 15:16:43;;;;;;;8.68;5.82;;;12.90;99.90;;;;;;7376016;19;20018;-66
2024/02/10 15:19:11;;;;;;;7.65;5.85;;;12.80;99.90;;;;;;7384486;19;20049;-66
2024/02/10 15:21:38;;;;;;;7.38;6.20;;;12.80;99.90;;;;;;7386456;19;20550;-65
2024/02/10 15:24:10;;;;;;;9.32;6.90;;;12.70;99.90;;;;;;7380010;19;20039;-65
2024/02/10 15:26:39;;;;;;;7.43;6.10;;;12.70;99.90;;;;;;7379048;19;20350;-64
2024/02/10 15:29:06;;;;;;;9.88;6.50;;;12.60;99.90;;;;;;7379442;19;20019;-65
2024/02/10 15:31:34;;;;;;;10.93;6.28;;;12.60;99.90;;;;;;7374357;19;21605;-65
2024/02/10 15:34:00;;;;;;;7.75;6.22;;;12.60;99.90;;;;;;7377247;19;20039;-65
2024/02/10 15:36:30;;;;;;;7.95;6.13;;;12.50;99.90;;;;;;7378575;19;20044;-65
2024/02/10 15:39:04;;;;;;;7.88;5.80;;;12.50;99.90;;;;;;7378962;19;20391;-65
2024/02/10 15:41:33;;;;;;;7.20;6.32;;;12.50;99.90;;;;;;7384387;19;20757;-66
2024/02/10 15:44:06;;;;;;;8.25;6.15;;;12.40;99.90;;;;;;7381943;19;20569;-64
2024/02/10 15:46:34;;;;;;;8.48;6.22;;;12.40;99.90;;;;;;7378100;19;20074;-65
2024/02/10 15:49:01;;;;;;;7.88;5.97;;;12.40;99.90;;;;;;7384154;19;20748;-66
2024/02/10 15:51:33;;;;;;;8.23;5.38;;;12.30;99.90;;;;;;7374944;19;20041;-65
2024/02/10 15:53:59;;;;;;;7.32;5.57;;;12.30;99.90;;;;;;7380017;19;20011;-66
2024/02/10 15:56:26;;;;;;;10.95;6.65;;;12.30;99.90;;;;;;7380289;19;20018;-66
2024/02/10 15:58:54;;;;;;;7.43;5.90;;;12.20;99.90;;;;;;7380694;19;20530;-66
2024/02/10 16:01:21;;;;;;;8.02;5.93;;;12.20;99.90;;;;;;7377771;19;20042;-65
2024/02/10 16:03:49;;;;;;;7.38;6.13;;;12.10;99.90;;;;;;7378938;19;20098;-66
2024/02/10 16:06:15;;;;;;;8.50;6.25;;;12.10;99.90;;;;;;7373285;19;20018;-65
2024/02/10 16:08:54;;;;;;;9.02;6.95;;;12.10;99.90;;;;;;7378334;19;20126;-66
2024/02/10 16:11:28;;;;;;;10.40;6.78;;;12.00;99.90;;;;;;7381392;19;20533;-63
2024/02/10 16:13:56;;;;;;;8.55;7.03;;;12.00;99.90;;;;;;7382648;19;20470;-66
2024/02/10 16:16:24;;;;;;;9.25;7.10;;;12.00;99.90;;;;;;7377018;19;20047;-66
2024/02/10 16:18:57;;;;;;;8.35;6.95;;;12.00;99.90;;;;;;7382248;19;20570;-66
2024/02/10 16:21:28;;;;;;;8.48;6.85;;;11.90;99.90;;;;;;7378722;19;20011;-64
2024/02/10 16:23:59;;;;;;;9.40;7.40;;;11.90;99.90;;;;;;7373686;19;20022;-65
2024/02/10 16:26:27;;;;;;;8.37;6.67;;;11.90;99.90;;;;;;7372125;19;20030;-65
2024/02/10 16:28:55;;;;;;;8.40;6.03;;;11.90;99.90;;;;;;7376668;19;20022;-65
2024/02/10 16:31:23;;;;;;;8.52;6.47;;;11.80;99.90;;;;;;7379852;19;20021;-64
2024/02/10 16:33:52;;;;;;;10.27;6.80;;;11.80;99.90;;;;;;7376292;19;20010;-64
2024/02/10 16:36:21;;;;;;;9.25;6.75;;;11.80;99.90;;;;;;7380206;19;20026;-65
2024/02/10 16:38:49;;;;;;;11.82;7.38;;;11.70;99.90;;;;;;7375401;19;20018;-65
2024/02/10 16:41:19;;;;;;;7.45;6.63;;;11.70;99.90;;;;;;7379982;19;20046;-66
2024/02/10 16:43:47;;;;;;;7.57;6.57;;;11.70;99.90;;;;;;7374614;19;20014;-65
2024/02/10 16:46:16;;;;;;;8.48;6.72;;;11.60;99.90;;;;;;7376194;19;20015;-65
2024/02/10 16:48:48;;;;;;;10.32;6.90;;;11.60;99.90;;;;;;7376255;19;20022;-64
2024/02/10 16:51:32;;;;;;;10.23;7.18;;;11.60;99.90;;;;;;7384913;19;20018;-64
2024/02/10 16:53:59;;;;;;;7.63;6.50;;;11.50;99.90;;;;;;7383156;19;21024;-64
2024/02/10 16:56:26;;;;;;;8.52;6.53;;;11.50;99.90;;;;;;7380007;19;20502;-64
2024/02/10 16:58:53;;;;;;;9.02;7.25;;;11.50;99.90;;;;;;7381927;19;20011;-64
2024/02/10 17:01:20;;;;;;;13.13;11.30;;;11.40;99.90;;;;;;7389047;19;20399;-65
2024/02/10 17:03:46;;;;;;;9.98;8.25;;;11.40;99.90;;;;;;7384611;19;20546;-66
2024/02/10 17:06:13;;;;;;;9.65;7.97;;;11.30;99.90;;;;;;7387711;19;20048;-66
2024/02/10 17:08:39;;;;;;;11.32;8.85;;;11.30;99.90;;;;;;7382378;19;20446;-66
2024/02/10 17:11:07;;;;;;;10.85;8.75;;;11.30;99.90;;;;;;7384300;19;20085;-66
2024/02/10 17:13:34;;;;;;;11.27;8.18;;;11.20;99.90;;;;;;7385207;19;20026;-65
2024/02/10 17:16:02;;;;;;;10.30;8.98;;;11.20;99.90;;;;;;7386489;19;20032;-67
2024/02/10 17:18:29;;;;;;;12.98;8.85;;;11.10;99.90;;;;;;7382940;19;20022;-66
2024/02/10 17:20:56;;;;;;;11.82;9.13;;;11.10;99.90;;;;;;7375098;19;20025;-65
2024/02/10 17:23:24;;;;;;;11.35;9.93;;;11.00;99.90;;;;;;7375064;19;20019;-66
2024/02/10 17:25:52;;;;;;;12.43;9.07;;;11.00;99.90;;;;;;7382987;19;20018;-66
2024/02/10 17:28:19;;;;;;;11.40;9.75;;;11.00;99.90;;;;;;7380653;19;20066;-63
2024/02/10 17:30:48;;;;;;;14.05;9.23;;;10.90;99.90;;;;;;7380278;19;20010;-66
2024/02/10 17:33:18;;;;;;;10.68;8.50;;;10.90;99.90;;;;;;7374676;19;20026;-65
2024/02/10 17:35:49;;;;;;;12.68;9.30;;;10.90;99.90;;;;;;7377580;19;20019;-65
2024/02/10 17:38:16;;;;;;;12.52;9.98;;;10.90;99.90;;;;;;7376730;19;20097;-65
2024/02/10 17:40:42;;;;;;;12.65;10.80;;;10.90;99.90;;;;;;7373779;19;20029;-65
2024/02/10 17:43:16;;;;;;;13.65;12.05;;;10.80;99.90;;;;;;7375176;19;20709;-64
2024/02/10 17:45:44;;;;;;;10.95;9.15;;;10.80;99.90;;;;;;7375406;19;20027;-65
2024/02/10 17:48:19;;;;;;;12.15;10.07;;;10.80;99.90;;;;;;7366627;19;20684;-65
2024/02/10 17:50:48;;;;;;;11.23;9.13;;;10.80;99.90;;;;;;7379535;19;20025;-64
2024/02/10 17:53:23;;;;;;;11.73;9.27;;;10.70;99.90;;;;;;7377751;19;20011;-64
2024/02/10 17:55:54;;;;;;;39.55;35.50;;;10.70;99.90;;;;;;7377350;19;20014;-64
2024/02/10 17:58:22;;;;;;;25.30;19.55;;;10.70;99.90;;;;;;7373463;19;20106;-64
2024/02/10 18:00:51;;;;;;;14.60;11.43;;;10.70;99.90;;;;;;7376488;19;20044;-65
2024/02/10 18:03:22;;;;;;;14.55;12.10;;;10.70;99.90;;;;;;7384991;19;20019;-67
2024/02/10 18:05:50;;;;;;;;;;;10.60;99.90;;;;;;7383212;19;20014;-65
2024/02/10 18:08:20;;;;;;;14.35;12.35;;;10.60;99.90;;;;;;7380040;19;19959;-66
2024/02/10 18:10:47;;;;;;;27.33;23.80;;;10.60;99.90;;;;;;7374142;19;20033;-65
2024/02/10 18:13:16;;;;;;;16.00;12.90;;;10.50;99.90;;;;;;7380596;19;20120;-64
2024/02/10 18:15:43;;;;;;;14.93;12.70;;;10.50;99.90;;;;;;7377996;19;20015;-64
2024/02/10 18:18:10;;;;;;;14.40;12.90;;;10.40;99.90;;;;;;7377614;19;20367;-66
2024/02/10 18:20:38;;;;;;;16.10;14.45;;;10.50;99.90;;;;;;7390084;19;20107;-66
2024/02/10 18:23:06;;;;;;;14.43;12.75;;;10.40;99.90;;;;;;7390140;19;20030;-67
2024/02/10 18:25:34;;;;;;;15.85;12.93;;;10.40;99.90;;;;;;7389439;19;20497;-67
2024/02/10 18:28:08;;;;;;;17.15;13.95;;;10.40;99.90;;;;;;7388100;19;20018;-67
2024/02/10 18:30:36;;;;;;;20.25;18.15;;;10.40;99.90;;;;;;7387829;19;20122;-66
2024/02/10 18:33:03;;;;;;;17.15;14.90;;;10.40;99.90;;;;;;7387866;19;20018;-65
2024/02/10 18:35:31;;;;;;;16.85;13.65;;;10.40;99.90;;;;;;7388344;19;20023;-66
2024/02/10 18:37:58;;;;;;;17.08;14.30;;;10.40;99.90;;;;;;7391068;19;20015;-64
2024/02/10 18:40:27;;;;;;;18.13;15.30;;;10.30;99.90;;;;;;7371417;19;20030;-63
2024/02/10 18:42:58;;;;;;;14.77;13.27;;;10.40;99.90;;;;;;7381730;19;20745;-65
2024/02/10 18:45:26;;;;;;;18.63;15.30;;;10.40;99.90;;;;;;7392479;19;20459;-66
2024/02/10 18:47:56;;;;;;;36.15;28.63;;;10.40;99.90;;;;;;7390992;19;20288;-66
2024/02/10 18:50:22;;;;;;;17.70;15.82;;;10.40;99.90;;;;;;7389963;19;20078;-65
2024/02/10 18:52:49;;;;;;;21.75;19.52;;;10.40;99.90;;;;;;7388282;19;20411;-72
2024/02/10 18:55:18;;;;;;;21.17;17.63;;;10.40;99.90;;;;;;7384719;19;20014;-65
2024/02/10 18:57:46;;;;;;;25.88;22.83;;;10.30;99.90;;;;;;7386858;19;20769;-66
2024/02/10 19:00:19;;;;;;;18.88;16.95;;;10.30;99.90;;;;;;7387136;19;20648;-66
2024/02/10 19:02:48;;;;;;;20.60;17.80;;;10.30;99.90;;;;;;7380152;19;20019;-67
2024/02/10 19:05:16;;;;;;;20.65;18.48;;;10.30;99.90;;;;;;7391719;19;20022;-66
2024/02/10 19:07:44;;;;;;;19.58;16.88;;;10.30;99.90;;;;;;7388515;19;20018;-67
2024/02/10 19:10:11;;;;;;;27.20;24.35;;;10.30;99.90;;;;;;7389166;19;20515;-66
2024/02/10 19:12:39;;;;;;;20.60;17.75;;;10.30;99.90;;;;;;7388293;19;20006;-67
2024/02/10 19:15:09;;;;;;;26.90;23.92;;;10.30;99.90;;;;;;7389802;19;20035;-66
2024/02/10 19:17:37;;;;;;;38.60;34.55;;;10.30;99.90;;;;;;7388998;19;20022;-66
2024/02/10 19:20:10;;;;;;;22.52;19.92;;;10.30;99.90;;;;;;7388292;19;20502;-66
2024/02/10 19:22:38;;;;;;;36.70;32.70;;;10.30;99.90;;;;;;7388651;19;20017;-66
2024/02/10 19:25:06;;;;;;;21.58;19.42;;;10.30;99.90;;;;;;7380459;19;20356;-65
2024/02/10 19:27:38;;;;;;;21.38;18.85;;;10.30;99.90;;;;;;7386251;19;20046;-66
2024/02/10 19:30:08;;;;;;;20.73;18.60;;;10.30;99.90;;;;;;7387532;19;21460;-67
2024/02/10 19:32:39;;;;;;;22.95;20.40;;;10.30;99.90;;;;;;7388937;19;20014;-67
2024/02/10 19:35:41;;;;;;;26.02;23.25;;;10.20;99.90;;;;;;7384160;19;20017;-66
2024/02/10 19:38:01;;;;;;;20.75;18.75;;;10.30;99.90;;;;;;7374288;19;20018;-64
2024/02/10 19:40:27;;;;;;;21.85;19.55;;;10.20;99.90;;;;;;7372692;19;21225;-64
2024/02/10 19:42:55;;;;;;;19.92;17.73;;;10.20;99.90;;;;;;7384844;19;20430;-66
2024/02/10 19:45:25;;;;;;;21.95;19.75;;;10.20;99.90;;;;;;7384547;19;20006;-65
2024/02/10 19:47:52;;;;;;;22.67;20.35;;;10.20;99.90;;;;;;7379624;19;20014;-65
2024/02/10 19:50:19;;;;;;;21.15;18.85;;;10.20;99.90;;;;;;7374494;19;20010;-65
2024/02/10 19:52:46;;;;;;;26.73;23.67;;;10.20;99.90;;;;;;7376333;19;20014;-66
2024/02/10 19:55:21;;;;;;;22.30;20.00;;;10.20;99.90;;;;;;7387588;19;20034;-66
2024/02/10 19:57:48;;;;;;;22.15;19.83;;;10.20;99.90;;;;;;7387326;19;20030;-67
2024/02/10 20:00:18;;;;;;;23.38;19.88;;;10.10;99.90;;;;;;7389575;19;20014;-67
2024/02/10 20:02:53;;;;;;;36.00;31.58;;;10.10;99.90;;;;;;7389236;19;20039;-67
2024/02/10 20:05:21;;;;;;;30.25;27.08;;;10.10;99.90;;;;;;7387469;19;20046;-66
2024/02/10 20:07:48;;;;;;;37.17;32.63;;;10.10;99.90;;;;;;7383321;19;20682;-65
2024/02/10 20:10:17;;;;;;;22.95;20.65;;;10.10;99.90;;;;;;7383941;19;20026;-66
2024/02/10 20:12:47;;;;;;;23.60;20.73;;;10.10;99.90;;;;;;7374076;19;20014;-65
2024/02/10 20:15:17;;;;;;;32.50;29.10;;;10.00;99.90;;;;;;7372290;19;20018;-65
2024/02/10 20:17:51;;;;;;;26.35;23.42;;;10.00;99.90;;;;;;7384096;19;20019;-66
2024/02/10 20:20:21;;;;;;;22.80;20.05;;;10.00;99.90;;;;;;7388636;19;20348;-66
2024/02/10 20:22:50;;;;;;;22.50;20.23;;;9.90;99.90;;;;;;7380679;19;20025;-66
2024/02/10 20:25:17;;;;;;;22.35;19.95;;;9.90;99.90;;;;;;7384622;19;20017;-67
2024/02/10 20:27:46;;;;;;;21.40;19.20;;;9.90;99.90;;;;;;7385690;19;20379;-65
2024/02/10 20:30:14;;;;;;;23.27;20.77;;;10.00;99.90;;;;;;7372843;19;20014;-64
2024/02/10 20:32:41;;;;;;;22.60;19.75;;;9.90;99.90;;;;;;7372235;19;20011;-63
2024/02/10 20:35:09;;;;;;;22.08;19.77;;;9.90;99.90;;;;;;7367869;19;20015;-65
2024/02/10 20:37:38;;;;;;;22.27;19.98;;;10.00;99.90;;;;;;7373926;19;20022;-65
2024/02/10 20:40:11;;;;;;;24.98;22.33;;;9.90;99.90;;;;;;7377051;19;20019;-66
2024/02/10 20:42:39;;;;;;;21.80;19.27;;;10.00;99.90;;;;;;7368411;19;20635;-65
2024/02/10 20:45:06;;;;;;;24.40;21.88;;;9.90;99.90;;;;;;7376790;19;20792;-65
2024/02/10 20:47:34;;;;;;;31.60;27.80;;;9.90;99.90;;;;;;7372440;19;20023;-65
2024/02/10 20:50:04;;;;;;;26.85;22.83;;;9.90;99.90;;;;;;7380739;19;20114;-67
2024/02/10 20:52:31;;;;;;;35.15;30.40;;;9.90;99.90;;;;;;7373419;19;20022;-66
2024/02/10 20:54:58;;;;;;;55.33;46.75;;;9.90;99.90;;;;;;7373970;19;20014;-66
2024/02/10 20:57:28;;;;;;;40.13;35.55;;;9.90;99.90;;;;;;7374308;19;20037;-67
2024/02/10 20:59:54;;;;;;;21.88;19.58;;;9.90;99.90;;;;;;7374491;19;20014;-65
2024/02/10 21:02:24;;;;;;;25.00;22.33;;;9.90;99.90;;;;;;7368366;19;20019;-65
2024/02/10 21:04:50;;;;;;;32.47;29.05;;;10.00;99.90;;;;;;7374549;19;20545;-64
2024/02/10 21:07:18;;;;;;;20.80;18.63;;;10.00;99.90;;;;;;7371997;19;20018;-67
2024/02/10 21:09:45;;;;;;;28.15;25.13;;;10.00;99.90;;;;;;7383756;19;20096;-66
2024/02/10 21:12:12;;;;;;;21.17;19.05;;;10.00;99.90;;;;;;7368664;19;20031;-65
2024/02/10 21:14:42;;;;;;;21.55;19.25;;;10.00;99.90;;;;;;7378473;19;20019;-67
2024/02/10 21:17:08;;;;;;;22.20;20.00;;;10.00;99.90;;;;;;7381486;19;20356;-67
2024/02/10 21:19:35;;;;;;;22.10;19.85;;;10.00;99.90;;;;;;7379885;19;20026;-66
2024/02/10 21:22:02;;;;;;;23.63;21.20;;;10.00;99.90;;;;;;7366629;19;20019;-66
2024/02/10 21:24:28;;;;;;;23.05;20.55;;;10.00;99.90;;;;;;7370300;19;20018;-66
2024/02/10 21:26:58;;;;;;;22.40;20.05;;;10.10;99.90;;;;;;7372139;19;20042;-65
2024/02/10 21:29:24;;;;;;;22.63;20.42;;;10.00;99.90;;;;;;7369410;19;20038;-66
2024/02/10 21:31:52;;;;;;;20.85;18.65;;;10.10;99.90;;;;;;7366081;19;20014;-64
2024/02/10 21:34:21;;;;;;;23.00;19.67;;;10.10;99.90;;;;;;7367877;19;20015;-65
2024/02/10 21:36:49;;;;;;;24.85;22.23;;;10.10;99.90;;;;;;7375055;19;20588;-64
2024/02/10 21:39:16;;;;;;;21.33;19.17;;;10.10;99.90;;;;;;7375024;19;20014;-65
2024/02/10 21:41:43;;;;;;;20.20;18.02;;;10.00;99.90;;;;;;7376304;19;20023;-64
2024/02/10 21:44:10;;;;;;;20.10;17.90;;;10.00;99.90;;;;;;7370779;19;20033;-65
2024/02/10 21:46:38;;;;;;;20.45;18.38;;;10.10;99.90;;;;;;7377919;19;20023;-65
2024/02/10 21:49:07;;;;;;;21.63;19.42;;;10.00;99.90;;;;;;7383752;19;20055;-66
2024/02/10 21:51:35;;;;;;;21.42;18.27;;;10.00;99.90;;;;;;7387301;19;20553;-66